createdAt,value
2022-10-10T00:01:32.431Z,75.28
2022-10-10T00:04:00.335Z,74.61
2022-10-10T00:06:33.041Z,74.62
2022-10-10T00:09:03.713Z,74.32
2022-10-10T00:11:33.096Z,75.77
2022-10-10T00:14:01.973Z,75.97
2022-10-10T00:16:31.295Z,76.36
2022-10-10T00:19:01.124Z,77.21
2022-10-10T00:21:27.900Z,77.24
2022-10-10T00:23:54.717Z,77.59
2022-10-10T00:26:22.053Z,78.09
2022-10-10T00:28:48.994Z,78.24
2022-10-10T00:31:23.123Z,77.16
2022-10-10T00:33:52.654Z,77.55
2022-10-10T00:36:21.313Z,78.06
2022-10-10T00:38:53.209Z,77.82
2022-10-10T00:41:20.116Z,78.38
2022-10-10T00:44:12.728Z,79.19
2022-10-10T00:46:42.770Z,78.82
2022-10-10T00:49:19.813Z,80.16
2022-10-10T00:51:51.764Z,79.99
2022-10-10T00:54:23.533Z,79.54
2022-10-10T00:56:54.782Z,79.78
2022-10-10T00:59:22.498Z,79.37
2022-10-10T01:01:49.360Z,79.67
2022-10-10T01:04:43.107Z,79.14
2022-10-10T01:07:25.497Z,79.54
2022-10-10T01:10:00.567Z,79.33
2022-10-10T01:12:45.422Z,79.21
2022-10-10T01:15:27.432Z,79.77
2022-10-10T01:18:11.558Z,80.48
2022-10-10T01:20:57.656Z,79.32
2022-10-10T01:24:02.229Z,79.56
2022-10-10T01:26:49.217Z,79.07
2022-10-10T01:29:54.122Z,79.51
2022-10-10T01:33:01.945Z,79.48
2022-10-10T01:35:57.998Z,80.07
2022-10-10T01:38:50.694Z,80.59
2022-10-10T01:41:34.288Z,80.84
2022-10-10T01:44:01.097Z,81.64
2022-10-10T01:46:33.300Z,82.49
2022-10-10T01:49:03.040Z,81.90
2022-10-10T01:51:53.424Z,81.76
2022-10-10T01:54:35.368Z,82.26
2022-10-10T01:57:22.154Z,82.01
2022-10-10T02:00:11.410Z,80.56
2022-10-10T02:02:50.481Z,81.34
2022-10-10T02:05:51.056Z,82.39
2022-10-10T02:08:35.694Z,83.45
2022-10-10T02:11:09.820Z,83.38
2022-10-10T02:14:00.420Z,83.60
2022-10-10T02:16:34.051Z,84.67
2022-10-10T02:19:11.144Z,85.27
2022-10-10T02:21:42.591Z,84.20
2022-10-10T02:24:14.252Z,84.05
2022-10-10T02:26:53.722Z,85.36
2022-10-10T02:29:28.385Z,84.52
2022-10-10T02:32:12.020Z,83.24
2022-10-10T02:34:50.987Z,83.12
2022-10-10T02:37:22.049Z,82.29
2022-10-10T02:39:58.487Z,82.80
2022-10-10T02:42:27.911Z,82.23
2022-10-10T02:44:56.395Z,81.01
2022-10-10T02:47:23.494Z,80.80
2022-10-10T02:49:51.214Z,80.94
2022-10-10T02:52:18.456Z,80.58
2022-10-10T02:54:48.378Z,80.77
2022-10-10T02:57:18.481Z,81.06
2022-10-10T02:59:45.313Z,80.96
2022-10-10T03:02:12.153Z,80.67
2022-10-10T03:04:39.223Z,80.45
2022-10-10T03:07:09.051Z,80.41
2022-10-10T03:09:38.738Z,80.68
2022-10-10T03:12:05.876Z,81.47
2022-10-10T03:14:37.935Z,80.96
2022-10-10T03:17:07.053Z,81.16
2022-10-10T03:19:36.030Z,82.30
2022-10-10T03:22:04.951Z,81.80
2022-10-10T03:24:32.168Z,82.88
2022-10-10T03:27:01.549Z,81.35
2022-10-10T03:29:30.891Z,80.93
2022-10-10T03:31:59.970Z,81.75
2022-10-10T03:34:27.153Z,81.69
2022-10-10T03:36:54.202Z,81.69
2022-10-10T03:39:21.027Z,81.08
2022-10-10T03:41:50.277Z,81.61
2022-10-10T03:44:17.107Z,81.94
2022-10-10T03:46:45.211Z,82.15
2022-10-10T03:49:11.981Z,82.53
2022-10-10T03:51:41.654Z,81.29
2022-10-10T03:54:08.503Z,82.63
2022-10-10T03:56:35.295Z,82.11
2022-10-10T03:59:07.339Z,82.08
2022-10-10T04:01:37.403Z,81.28
2022-10-10T04:04:05.115Z,81.33
2022-10-10T04:06:34.601Z,80.80
2022-10-10T04:09:04.382Z,81.01
2022-10-10T04:11:35.162Z,81.29
2022-10-10T04:14:05.021Z,82.61
2022-10-10T04:16:31.832Z,82.71
2022-10-10T04:19:01.144Z,82.38
2022-10-10T04:21:28.006Z,83.24
2022-10-10T04:23:59.728Z,82.10
2022-10-10T04:26:29.548Z,82.72
2022-10-10T04:28:56.320Z,81.93
2022-10-10T04:31:23.939Z,82.00
2022-10-10T04:33:53.557Z,82.54
2022-10-10T04:36:22.842Z,83.40
2022-10-10T04:38:52.731Z,84.06
2022-10-10T04:41:19.644Z,83.30
2022-10-10T04:43:46.936Z,82.77
2022-10-10T04:46:16.541Z,84.41
2022-10-10T04:48:46.120Z,83.89
2022-10-10T04:51:18.019Z,84.58
2022-10-10T04:53:50.563Z,84.16
2022-10-10T04:56:17.529Z,83.81
2022-10-10T04:58:46.999Z,84.27
2022-10-10T05:01:13.984Z,83.53
2022-10-10T05:03:43.479Z,85.03
2022-10-10T05:06:17.919Z,84.75
2022-10-10T05:08:47.757Z,83.73
2022-10-10T05:11:14.637Z,83.96
2022-10-10T05:13:41.493Z,84.08
2022-10-10T05:16:11.058Z,84.98
2022-10-10T05:18:44.667Z,85.33
2022-10-10T05:21:11.952Z,85.34
2022-10-10T05:23:41.854Z,84.55
2022-10-10T05:26:12.270Z,83.62
2022-10-10T05:28:39.268Z,85.43
2022-10-10T05:31:06.295Z,84.60
2022-10-10T05:33:36.640Z,84.62
2022-10-10T05:36:14.480Z,84.06
2022-10-10T05:38:42.165Z,84.50
2022-10-10T05:41:12.628Z,83.03
2022-10-10T05:43:39.705Z,83.59
2022-10-10T05:46:06.767Z,83.67
2022-10-10T05:48:38.484Z,84.44
2022-10-10T05:51:07.639Z,84.22
2022-10-10T05:53:34.508Z,83.81
2022-10-10T05:56:02.232Z,84.81
2022-10-10T05:58:33.724Z,84.13
2022-10-10T06:01:08.064Z,82.45
2022-10-10T06:03:39.752Z,80.06
2022-10-10T06:06:09.588Z,78.33
2022-10-10T06:08:36.477Z,76.63
2022-10-10T06:11:11.256Z,74.42
2022-10-10T06:13:41.218Z,72.30
2022-10-10T06:16:08.042Z,73.11
2022-10-10T06:18:35.149Z,69.65
2022-10-10T06:21:05.231Z,68.36
2022-10-10T06:23:33.125Z,66.23
2022-10-10T06:26:02.029Z,63.73
2022-10-10T06:28:31.248Z,63.95
2022-10-10T06:31:03.838Z,60.61
2022-10-10T06:33:31.243Z,58.96
2022-10-10T06:36:00.496Z,55.63
2022-10-10T06:38:27.662Z,55.41
2022-10-10T06:40:58.510Z,53.99
2022-10-10T06:43:29.863Z,53.29
2022-10-10T06:45:57.566Z,52.21
2022-10-10T06:48:24.541Z,50.72
2022-10-10T06:51:07.739Z,50.96
2022-10-10T06:53:44.103Z,49.70
2022-10-10T06:56:24.977Z,48.34
2022-10-10T06:58:54.671Z,47.89
2022-10-10T07:01:24.155Z,45.43
2022-10-10T07:03:51.151Z,45.79
2022-10-10T07:06:18.454Z,45.55
2022-10-10T07:08:47.818Z,44.69
2022-10-10T07:11:18.075Z,44.87
2022-10-10T07:13:44.887Z,45.35
2022-10-10T07:16:14.009Z,43.93
2022-10-10T07:18:43.105Z,42.76
2022-10-10T07:21:10.501Z,42.79
2022-10-10T07:23:37.632Z,44.32
2022-10-10T07:26:08.883Z,44.18
2022-10-10T07:28:35.845Z,42.59
2022-10-10T07:31:12.020Z,41.36
2022-10-10T07:33:47.405Z,40.66
2022-10-10T07:36:19.632Z,42.65
2022-10-10T07:38:53.046Z,42.28
2022-10-10T07:41:21.072Z,40.39
2022-10-10T07:43:53.573Z,40.96
2022-10-10T07:46:22.948Z,41.33
2022-10-10T07:48:52.437Z,38.69
2022-10-10T07:51:19.260Z,37.11
2022-10-10T07:53:46.167Z,37.03
2022-10-10T07:56:13.049Z,39.35
2022-10-10T07:58:40.134Z,38.14
2022-10-10T08:01:12.247Z,36.02
2022-10-10T08:03:40.173Z,35.49
2022-10-10T08:06:11.760Z,36.46
2022-10-10T08:08:50.313Z,35.92
2022-10-10T08:11:21.720Z,33.41
2022-10-10T08:13:49.686Z,32.42
2022-10-10T08:16:17.006Z,30.33
2022-10-10T08:18:44.050Z,30.99
2022-10-10T08:21:13.203Z,31.08
2022-10-10T08:23:40.429Z,31.04
2022-10-10T08:26:10.456Z,30.95
2022-10-10T08:28:41.911Z,30.60
2022-10-10T08:31:18.286Z,31.20
2022-10-10T08:33:48.697Z,30.04
2022-10-10T08:36:19.345Z,28.66
2022-10-10T08:38:47.276Z,29.19
2022-10-10T08:41:48.650Z,29.91
2022-10-10T08:44:24.311Z,31.55
2022-10-10T08:47:02.984Z,33.14
2022-10-10T08:49:41.517Z,34.67
2022-10-10T08:52:35.633Z,33.21
2022-10-10T08:55:10.751Z,30.98
2022-10-10T08:58:19.420Z,30.77
2022-10-10T09:00:56.326Z,29.44
2022-10-10T09:03:47.679Z,29.40
2022-10-10T09:06:51.624Z,30.07
2022-10-10T09:10:00.807Z,27.29
2022-10-10T09:12:51.088Z,25.91
2022-10-10T09:15:26.404Z,25.61
2022-10-10T09:18:15.759Z,28.58
2022-10-10T09:21:18.968Z,28.35
2022-10-10T09:24:21.138Z,28.48
2022-10-10T09:26:58.798Z,28.65
2022-10-10T09:29:32.260Z,27.56
2022-10-10T09:32:11.618Z,26.54
2022-10-10T09:34:49.286Z,26.44
2022-10-10T09:37:46.232Z,26.13
2022-10-10T09:40:36.800Z,27.18
2022-10-10T09:43:19.050Z,25.45
2022-10-10T09:45:56.249Z,24.09
2022-10-10T09:48:33.937Z,22.94
2022-10-10T09:51:05.429Z,25.10
2022-10-10T09:53:32.302Z,25.42
2022-10-10T09:56:02.853Z,24.31
2022-10-10T09:58:45.088Z,23.33
2022-10-10T10:01:34.404Z,24.53
2022-10-10T10:04:34.476Z,24.10
2022-10-10T10:07:32.091Z,24.54
2022-10-10T10:10:18.840Z,23.31
2022-10-10T10:12:46.563Z,22.46
2022-10-10T10:15:23.038Z,22.30
2022-10-10T10:18:19.325Z,24.67
2022-10-10T10:20:50.713Z,23.86
2022-10-10T10:23:23.545Z,24.13
2022-10-10T10:26:30.009Z,24.50
2022-10-10T10:28:58.087Z,24.06
2022-10-10T10:31:53.746Z,23.72
2022-10-10T10:34:48.324Z,25.04
2022-10-10T10:38:04.319Z,22.61
2022-10-10T10:40:41.081Z,22.58
2022-10-10T10:43:25.683Z,22.34
2022-10-10T10:46:37.899Z,21.72
2022-10-10T10:49:16.145Z,21.47
2022-10-10T10:52:04.877Z,20.34
2022-10-10T10:55:12.790Z,23.66
2022-10-10T10:58:57.963Z,24.86
2022-10-10T11:01:20.329Z,23.54
2022-10-10T11:05:20.168Z,21.75
2022-10-10T11:07:20.936Z,20.79
2022-10-10T11:10:54.600Z,22.22
2022-10-10T11:13:32.878Z,21.75
2022-10-10T11:16:36.281Z,22.95
2022-10-10T11:19:11.945Z,23.39
2022-10-10T11:21:50.162Z,23.34
2022-10-10T11:24:43.468Z,24.70
2022-10-10T11:27:21.033Z,23.74
2022-10-10T11:30:20.757Z,23.33
2022-10-10T11:32:55.756Z,22.47
2022-10-10T11:35:46.389Z,23.54
2022-10-10T11:38:20.022Z,26.91
2022-10-10T11:40:54.273Z,25.52
2022-10-10T11:44:08.386Z,27.31
2022-10-10T11:47:08.223Z,26.75
2022-10-10T11:50:12.371Z,23.39
2022-10-10T11:52:55.855Z,21.86
2022-10-10T11:55:27.174Z,23.15
2022-10-10T11:58:06.362Z,24.12
2022-10-10T12:00:54.288Z,25.80
2022-10-10T12:03:21.085Z,26.06
2022-10-10T12:05:58.707Z,24.98
2022-10-10T12:08:36.093Z,23.16
2022-10-10T12:11:16.872Z,23.37
2022-10-10T12:13:49.520Z,23.46
2022-10-10T12:16:30.415Z,23.54
2022-10-10T12:19:22.487Z,24.53
2022-10-10T12:21:55.329Z,25.30
2022-10-10T12:24:23.977Z,23.50
2022-10-10T12:26:56.957Z,21.93
2022-10-10T12:29:50.879Z,21.70
2022-10-10T12:32:23.035Z,23.32
2022-10-10T12:34:49.735Z,25.25
2022-10-10T12:37:29.641Z,25.58
2022-10-10T12:40:19.832Z,25.86
2022-10-10T12:42:46.562Z,26.45
2022-10-10T12:45:31.436Z,27.38
2022-10-10T12:48:06.343Z,28.23
2022-10-10T12:50:55.096Z,27.36
2022-10-10T12:53:25.579Z,26.75
2022-10-10T12:56:02.070Z,29.79
2022-10-10T12:58:33.781Z,30.62
2022-10-10T13:01:06.544Z,30.57
2022-10-10T13:03:45.474Z,31.99
2022-10-10T13:06:30.632Z,31.43
2022-10-10T13:08:59.145Z,31.26
2022-10-10T13:11:28.478Z,31.30
2022-10-10T13:13:57.364Z,31.21
2022-10-10T13:16:34.129Z,28.71
2022-10-10T13:19:03.743Z,27.73
2022-10-10T13:21:36.675Z,26.73
2022-10-10T13:24:14.386Z,27.25
2022-10-10T13:26:50.953Z,30.46
2022-10-10T13:29:33.209Z,30.13
2022-10-10T13:32:23.823Z,28.99
2022-10-10T13:35:00.600Z,31.61
2022-10-10T13:37:33.221Z,30.26
2022-10-10T13:40:01.022Z,30.01
2022-10-10T13:42:30.434Z,31.01
2022-10-10T13:45:00.189Z,31.93
2022-10-10T13:47:52.638Z,30.36
2022-10-10T13:50:35.384Z,29.32
2022-10-10T13:53:27.323Z,30.09
2022-10-10T13:56:31.823Z,33.26
2022-10-10T13:59:01.560Z,34.75
2022-10-10T14:01:47.504Z,37.10
2022-10-10T14:04:26.213Z,38.64
2022-10-10T14:07:04.852Z,36.81
2022-10-10T14:09:37.286Z,36.49
2022-10-10T14:12:08.734Z,36.02
2022-10-10T14:14:50.018Z,36.23
2022-10-10T14:17:20.397Z,37.34
2022-10-10T14:19:48.669Z,37.70
2022-10-10T14:22:16.057Z,38.03
2022-10-10T14:24:49.124Z,37.27
2022-10-10T14:27:24.271Z,36.46
2022-10-10T14:29:56.766Z,36.31
2022-10-10T14:32:26.897Z,36.64
2022-10-10T14:34:53.869Z,36.42
2022-10-10T14:37:25.618Z,37.72
2022-10-10T14:39:53.145Z,37.95
2022-10-10T14:42:21.975Z,38.14
2022-10-10T14:44:49.320Z,38.43
2022-10-10T14:47:22.084Z,38.82
2022-10-10T14:49:49.519Z,38.65
2022-10-10T14:52:16.365Z,37.79
2022-10-10T14:54:45.716Z,38.45
2022-10-10T14:57:14.191Z,38.90
2022-10-10T14:59:47.903Z,39.83
2022-10-10T15:02:21.770Z,40.22
2022-10-10T15:04:51.747Z,40.27
2022-10-10T15:07:19.495Z,40.63
2022-10-10T15:12:43.791Z,42.30
2022-10-10T15:15:12.969Z,42.71
2022-10-10T15:17:40.950Z,42.56
2022-10-10T15:20:14.771Z,43.15
2022-10-10T15:22:43.516Z,44.28
2022-10-10T15:25:13.217Z,44.40
2022-10-10T15:27:40.075Z,44.29
2022-10-10T15:30:10.539Z,45.11
2022-10-10T15:32:42.315Z,45.16
2022-10-10T15:35:21.034Z,45.81
2022-10-10T15:37:48.196Z,45.75
2022-10-10T15:40:24.526Z,46.17
2022-10-10T15:42:53.957Z,47.54
2022-10-10T15:45:44.063Z,47.33
2022-10-10T15:48:09.802Z,48.29
2022-10-10T15:50:42.653Z,49.26
2022-10-10T15:53:09.489Z,49.40
2022-10-10T15:55:46.358Z,49.55
2022-10-10T15:58:18.693Z,49.42
2022-10-10T16:00:48.302Z,50.60
2022-10-10T16:03:15.166Z,50.42
2022-10-10T16:05:42.743Z,50.46
2022-10-10T16:08:13.664Z,50.39
2022-10-10T16:10:44.790Z,49.99
2022-10-10T16:13:11.939Z,49.82
2022-10-10T16:15:41.843Z,50.31
2022-10-10T16:18:08.679Z,50.44
2022-10-10T16:20:38.520Z,50.51
2022-10-10T16:23:09.978Z,50.39
2022-10-10T16:25:41.353Z,50.23
2022-10-10T16:28:08.315Z,50.78
2022-10-10T16:30:36.218Z,50.65
2022-10-10T16:33:05.554Z,50.72
2022-10-10T16:35:37.560Z,50.76
2022-10-10T16:38:04.505Z,50.56
2022-10-10T16:40:33.390Z,50.85
2022-10-10T16:43:03.289Z,51.76
2022-10-10T16:45:34.812Z,52.29
2022-10-10T16:48:01.745Z,53.09
2022-10-10T16:50:28.590Z,53.19
2022-10-10T16:52:55.440Z,52.64
2022-10-10T16:55:22.232Z,52.30
2022-10-10T16:57:51.519Z,52.29
2022-10-10T17:00:18.400Z,52.94
2022-10-10T17:02:45.274Z,55.68
2022-10-10T17:05:12.181Z,57.91
2022-10-10T17:07:39.038Z,59.56
2022-10-10T17:10:09.157Z,61.03
2022-10-10T17:12:40.617Z,62.43
2022-10-10T17:15:08.282Z,63.51
2022-10-10T17:17:36.304Z,64.71
2022-10-10T17:20:04.291Z,66.62
2022-10-10T17:22:31.671Z,68.28
2022-10-10T17:24:58.607Z,68.35
2022-10-10T17:27:28.002Z,70.55
2022-10-10T17:29:57.717Z,71.27
2022-10-10T17:32:24.590Z,71.99
2022-10-10T17:34:51.497Z,73.00
2022-10-10T17:37:18.412Z,74.60
2022-10-10T17:39:46.445Z,75.77
2022-10-10T17:42:15.594Z,77.59
2022-10-10T17:44:49.607Z,77.43
2022-10-10T17:47:21.390Z,78.44
2022-10-10T17:49:48.229Z,78.35
2022-10-10T17:52:21.263Z,79.50
2022-10-10T17:54:51.057Z,79.56
2022-10-10T17:57:23.686Z,80.10
2022-10-10T17:59:53.019Z,80.34
2022-10-10T18:02:23.161Z,81.93
2022-10-10T18:04:54.607Z,81.59
2022-10-10T18:07:21.462Z,81.83
2022-10-10T18:09:51.732Z,82.40
2022-10-10T18:12:22.228Z,82.98
2022-10-10T18:14:52.870Z,83.81
2022-10-10T18:17:19.789Z,84.51
2022-10-10T18:19:48.864Z,85.22
2022-10-10T18:22:18.435Z,85.35
2022-10-10T18:24:45.677Z,85.28
2022-10-10T18:27:15.154Z,83.27
2022-10-10T18:29:44.854Z,81.78
2022-10-10T18:32:14.392Z,81.30
2022-10-10T18:34:43.884Z,80.49
2022-10-10T18:37:15.818Z,79.57
2022-10-10T18:39:42.686Z,77.35
2022-10-10T18:42:12.260Z,75.82
2022-10-10T18:44:39.422Z,75.15
2022-10-10T18:47:06.336Z,75.40
2022-10-10T18:49:33.308Z,74.53
2022-10-10T18:52:03.143Z,74.16
2022-10-10T18:54:35.516Z,73.29
2022-10-10T18:57:05.354Z,72.07
2022-10-10T18:59:32.709Z,72.48
2022-10-10T19:01:59.861Z,71.48
2022-10-10T19:04:26.936Z,71.38
2022-10-10T19:06:57.799Z,71.72
2022-10-10T19:09:25.272Z,71.66
2022-10-10T19:11:53.915Z,71.89
2022-10-10T19:14:21.287Z,71.30
2022-10-10T19:16:49.002Z,72.18
2022-10-10T19:19:18.607Z,72.45
2022-10-10T19:21:48.787Z,73.00
2022-10-10T19:24:19.514Z,74.27
2022-10-10T19:26:51.925Z,74.89
2022-10-10T19:29:19.380Z,75.43
2022-10-10T19:31:48.832Z,75.90
2022-10-10T19:34:15.672Z,75.92
2022-10-10T19:36:42.747Z,75.76
2022-10-10T19:39:12.173Z,76.79
2022-10-10T19:41:39.114Z,77.55
2022-10-10T19:44:06.391Z,77.88
2022-10-10T19:46:37.396Z,78.24
2022-10-10T19:49:05.068Z,78.64
2022-10-10T19:51:31.888Z,78.03
2022-10-10T19:54:01.431Z,78.87
2022-10-10T19:56:28.304Z,79.14
2022-10-10T19:58:58.349Z,79.95
2022-10-10T20:01:29.910Z,79.93
2022-10-10T20:04:00.058Z,80.31
2022-10-10T20:06:27.588Z,80.71
2022-10-10T20:08:55.288Z,81.67
2022-10-10T20:11:23.284Z,81.21
2022-10-10T20:13:55.240Z,82.48
2022-10-10T20:16:24.117Z,82.04
2022-10-10T20:18:51.671Z,82.00
2022-10-10T20:21:29.244Z,82.67
2022-10-10T20:23:56.698Z,82.41
2022-10-10T20:26:26.826Z,82.71
2022-10-10T20:28:56.108Z,83.22
2022-10-10T20:31:27.276Z,83.84
2022-10-10T20:33:58.237Z,84.52
2022-10-10T20:36:28.096Z,84.40
2022-10-10T20:39:00.542Z,85.69
2022-10-10T20:41:31.330Z,85.16
2022-10-10T20:44:03.360Z,84.84
2022-10-10T20:46:35.340Z,84.83
2022-10-10T20:49:04.554Z,85.36
2022-10-10T20:51:31.730Z,85.40
2022-10-10T20:54:04.454Z,85.71
2022-10-10T20:56:34.657Z,86.40
2022-10-10T20:59:01.929Z,87.28
2022-10-10T21:01:32.737Z,86.10
2022-10-10T21:04:01.098Z,86.43
2022-10-10T21:06:36.033Z,86.75
2022-10-10T21:09:07.862Z,86.67
2022-10-10T21:11:35.477Z,86.99
2022-10-10T21:14:02.713Z,86.74
2022-10-10T21:16:36.385Z,87.27
2022-10-10T21:19:05.957Z,87.26
2022-10-10T21:21:35.161Z,87.01
2022-10-10T21:24:06.211Z,86.73
2022-10-10T21:26:33.774Z,86.42
2022-10-10T21:29:03.208Z,87.02
2022-10-10T21:31:34.793Z,87.68
2022-10-10T21:34:03.547Z,88.25
2022-10-10T21:36:31.373Z,88.46
2022-10-10T21:39:01.317Z,88.11
2022-10-10T21:41:28.998Z,88.13
2022-10-10T21:44:00.303Z,87.44
2022-10-10T21:46:35.806Z,88.29
2022-10-10T21:49:07.879Z,87.97
2022-10-10T21:51:38.476Z,87.60
2022-10-10T21:54:06.229Z,88.10
2022-10-10T21:56:36.125Z,88.13
2022-10-10T21:59:03.447Z,89.29
2022-10-10T22:01:33.226Z,88.91
2022-10-10T22:04:04.592Z,88.80
2022-10-10T22:06:34.203Z,87.72
2022-10-10T22:09:06.182Z,87.62
2022-10-10T22:11:35.938Z,87.93
2022-10-10T22:14:05.568Z,88.08
2022-10-10T22:16:33.572Z,88.73
2022-10-10T22:19:04.236Z,87.26
2022-10-10T22:21:32.385Z,88.11
2022-10-10T22:24:06.430Z,88.46
2022-10-10T22:26:35.055Z,87.99
2022-10-10T22:29:04.349Z,89.09
2022-10-10T22:31:31.272Z,89.19
2022-10-10T22:33:58.366Z,90.71
2022-10-10T22:36:25.180Z,89.34
2022-10-10T22:38:54.262Z,89.80
2022-10-10T22:41:23.276Z,89.21
2022-10-10T22:43:52.698Z,88.61
2022-10-10T22:46:19.676Z,88.63
2022-10-10T22:48:52.023Z,89.09
2022-10-10T22:51:23.460Z,89.01
2022-10-10T22:53:50.512Z,87.89
2022-10-10T22:56:21.165Z,89.04
2022-10-10T22:58:52.132Z,89.78
2022-10-10T23:01:26.203Z,88.57
2022-10-10T23:04:03.311Z,87.54
2022-10-10T23:06:32.641Z,88.54
2022-10-10T23:09:01.619Z,87.89
2022-10-10T23:11:30.986Z,87.97
2022-10-10T23:13:58.092Z,87.34
2022-10-10T23:16:25.039Z,87.35
2022-10-10T23:18:54.042Z,87.91
2022-10-10T23:21:21.138Z,87.58
2022-10-10T23:23:50.467Z,86.95
2022-10-10T23:26:17.493Z,86.73
2022-10-10T23:28:49.450Z,86.92
2022-10-10T23:31:16.365Z,86.50
2022-10-10T23:33:45.756Z,87.25
2022-10-10T23:36:16.922Z,87.42
2022-10-10T23:38:46.527Z,87.67
2022-10-10T23:41:14.385Z,86.41
2022-10-10T23:43:41.316Z,86.59
2022-10-10T23:46:08.829Z,88.72
2022-10-10T23:48:38.864Z,88.04
2022-10-10T23:51:08.713Z,88.58
2022-10-10T23:53:35.925Z,88.71
2022-10-10T23:56:08.060Z,88.89
2022-10-10T23:58:35.507Z,88.69
